sensor_id;sensor_type;location;lat;lon;timestamp;pressure;altitude;pressure_sealevel;temperature;humidity
12215;BME280;6170;42.206;24.142;2023-05-07T00:00:59;99149.59;;;13.47;80.03
12215;BME280;6170;42.206;24.142;2023-05-07T00:03:26;99122.16;;;12.79;82.13
12215;BME280;6170;42.206;24.142;2023-05-07T00:05:53;99146.31;;;13.45;80.63
12215;BME280;6170;42.206;24.142;2023-05-07T00:08:20;99115.13;;;13.04;80.65
12215;BME280;6170;42.206;24.142;2023-05-07T00:10:47;99113.88;;;13.00;80.88
12215;BME280;6170;42.206;24.142;2023-05-07T00:13:15;99112.22;;;12.99;80.34
12215;BME280;6170;42.206;24.142;2023-05-07T00:15:42;99114.91;;;12.99;79.64
12215;BME280;6170;42.206;24.142;2023-05-07T00:18:09;99113.28;;;12.72;80.75
12215;BME280;6170;42.206;24.142;2023-05-07T00:20:37;99127.78;;;12.65;80.86
12215;BME280;6170;42.206;24.142;2023-05-07T00:23:04;99121.38;;;12.66;81.23
12215;BME280;6170;42.206;24.142;2023-05-07T00:25:31;99132.94;;;12.46;81.83
12215;BME280;6170;42.206;24.142;2023-05-07T00:27:58;99128.78;;;12.57;81.73
12215;BME280;6170;42.206;24.142;2023-05-07T00:30:30;99127.94;;;13.02;80.24
12215;BME280;6170;42.206;24.142;2023-05-07T00:32:57;99177.34;;;13.47;79.63
12215;BME280;6170;42.206;24.142;2023-05-07T00:35:24;99129.41;;;13.12;79.98
12215;BME280;6170;42.206;24.142;2023-05-07T00:37:51;99117.19;;;13.22;79.64
12215;BME280;6170;42.206;24.142;2023-05-07T00:40:18;99124.00;;;13.25;78.83
12215;BME280;6170;42.206;24.142;2023-05-07T00:42:45;99109.75;;;13.18;79.50
12215;BME280;6170;42.206;24.142;2023-05-07T00:45:15;99127.66;;;13.43;79.34
12215;BME280;6170;42.206;24.142;2023-05-07T00:47:43;99172.50;;;13.69;78.92
12215;BME280;6170;42.206;24.142;2023-05-07T00:50:10;99130.38;;;13.37;79.40
12215;BME280;6170;42.206;24.142;2023-05-07T00:52:38;99164.63;;;13.68;79.12
12215;BME280;6170;42.206;24.142;2023-05-07T00:55:06;99127.38;;;13.65;78.56
12215;BME280;6170;42.206;24.142;2023-05-07T00:57:36;99127.41;;;13.58;78.13
12215;BME280;6170;42.206;24.142;2023-05-07T01:00:04;99182.19;;;13.83;78.14
12215;BME280;6170;42.206;24.142;2023-05-07T01:02:33;99133.44;;;13.54;77.98
12215;BME280;6170;42.206;24.142;2023-05-07T01:05:02;99187.19;;;13.80;78.04
12215;BME280;6170;42.206;24.142;2023-05-07T01:07:30;99142.16;;;13.49;79.23
12215;BME280;6170;42.206;24.142;2023-05-07T01:09:57;99181.81;;;13.73;79.41
12215;BME280;6170;42.206;24.142;2023-05-07T01:12:25;99133.25;;;13.42;79.11
12215;BME280;6170;42.206;24.142;2023-05-07T01:14:53;99186.31;;;13.86;79.04
12215;BME280;6170;42.206;24.142;2023-05-07T01:17:20;99146.03;;;13.66;79.62
12215;BME280;6170;42.206;24.142;2023-05-07T01:19:47;99184.78;;;14.03;79.43
12215;BME280;6170;42.206;24.142;2023-05-07T01:22:27;99145.91;;;13.86;79.81
12215;BME280;6170;42.206;24.142;2023-05-07T01:24:55;99145.19;;;13.66;81.00
12215;BME280;6170;42.206;24.142;2023-05-07T01:27:24;99136.41;;;13.83;80.39
12215;BME280;6170;42.206;24.142;2023-05-07T01:29:52;99183.16;;;14.02;80.85
12215;BME280;6170;42.206;24.142;2023-05-07T01:32:22;99137.25;;;13.77;81.46
12215;BME280;6170;42.206;24.142;2023-05-07T01:34:51;99141.22;;;13.75;81.91
12215;BME280;6170;42.206;24.142;2023-05-07T01:37:20;99127.88;;;13.86;80.74
12215;BME280;6170;42.206;24.142;2023-05-07T01:39:49;99140.91;;;13.96;80.69
12215;BME280;6170;42.206;24.142;2023-05-07T01:42:16;99135.81;;;14.13;79.88
12215;BME280;6170;42.206;24.142;2023-05-07T01:44:43;99131.59;;;13.92;80.67
12215;BME280;6170;42.206;24.142;2023-05-07T01:47:10;99116.66;;;13.96;80.05
12215;BME280;6170;42.206;24.142;2023-05-07T01:49:38;99141.59;;;14.23;79.15
12215;BME280;6170;42.206;24.142;2023-05-07T01:52:06;99115.31;;;14.12;79.77
12215;BME280;6170;42.206;24.142;2023-05-07T01:54:33;99128.56;;;14.13;79.89
12215;BME280;6170;42.206;24.142;2023-05-07T01:57:01;99160.19;;;14.31;80.20
12215;BME280;6170;42.206;24.142;2023-05-07T01:59:28;99126.50;;;14.15;79.66
12215;BME280;6170;42.206;24.142;2023-05-07T02:01:55;99113.50;;;14.06;79.96
12215;BME280;6170;42.206;24.142;2023-05-07T02:04:23;99112.59;;;14.18;79.65
12215;BME280;6170;42.206;24.142;2023-05-07T02:06:50;99110.38;;;14.09;79.78
12215;BME280;6170;42.206;24.142;2023-05-07T02:09:18;99115.47;;;13.85;80.78
12215;BME280;6170;42.206;24.142;2023-05-07T02:11:45;99104.59;;;13.67;81.24
12215;BME280;6170;42.206;24.142;2023-05-07T02:14:13;99140.50;;;13.92;81.05
12215;BME280;6170;42.206;24.142;2023-05-07T02:16:41;99095.50;;;13.55;81.73
12215;BME280;6170;42.206;24.142;2023-05-07T02:19:08;99144.94;;;13.74;82.29
12215;BME280;6170;42.206;24.142;2023-05-07T02:21:35;99090.81;;;13.37;82.70
12215;BME280;6170;42.206;24.142;2023-05-07T02:24:02;99113.19;;;13.44;82.38
12215;BME280;6170;42.206;24.142;2023-05-07T02:26:29;99090.16;;;13.48;82.78
12215;BME280;6170;42.206;24.142;2023-05-07T02:28:56;99089.59;;;13.40;82.66
12215;BME280;6170;42.206;24.142;2023-05-07T02:31:24;99091.88;;;13.36;82.47
12215;BME280;6170;42.206;24.142;2023-05-07T02:33:51;99087.69;;;13.47;83.01
12215;BME280;6170;42.206;24.142;2023-05-07T02:36:18;99087.94;;;13.39;82.10
12215;BME280;6170;42.206;24.142;2023-05-07T02:38:45;99070.84;;;13.00;82.34
12215;BME280;6170;42.206;24.142;2023-05-07T02:41:13;99087.78;;;13.21;82.69
12215;BME280;6170;42.206;24.142;2023-05-07T02:43:40;99090.66;;;13.19;82.57
12215;BME280;6170;42.206;24.142;2023-05-07T02:46:08;99084.06;;;13.15;82.79
12215;BME280;6170;42.206;24.142;2023-05-07T02:48:36;99089.25;;;13.17;82.68
12215;BME280;6170;42.206;24.142;2023-05-07T02:51:04;99079.75;;;12.94;83.30
12215;BME280;6170;42.206;24.142;2023-05-07T02:53:32;99074.38;;;12.94;83.62
12215;BME280;6170;42.206;24.142;2023-05-07T02:56:00;99117.19;;;13.09;84.07
12215;BME280;6170;42.206;24.142;2023-05-07T02:58:27;99070.66;;;12.76;84.39
12215;BME280;6170;42.206;24.142;2023-05-07T03:00:54;99116.78;;;13.19;84.20
12215;BME280;6170;42.206;24.142;2023-05-07T03:03:21;99075.84;;;12.71;85.14
12215;BME280;6170;42.206;24.142;2023-05-07T03:05:50;99122.56;;;13.09;84.60
12215;BME280;6170;42.206;24.142;2023-05-07T03:08:17;99085.31;;;12.99;84.19
12215;BME280;6170;42.206;24.142;2023-05-07T03:10:44;99080.13;;;13.18;83.34
12215;BME280;6170;42.206;24.142;2023-05-07T03:13:11;99077.66;;;13.16;83.41
12215;BME280;6170;42.206;24.142;2023-05-07T03:15:38;99088.81;;;13.26;83.09
12215;BME280;6170;42.206;24.142;2023-05-07T03:18:05;99114.34;;;13.55;82.83
12215;BME280;6170;42.206;24.142;2023-05-07T03:20:32;99082.78;;;13.31;82.58
12215;BME280;6170;42.206;24.142;2023-05-07T03:23:00;99126.19;;;13.54;82.20
12215;BME280;6170;42.206;24.142;2023-05-07T03:25:27;99078.63;;;13.35;82.57
12215;BME280;6170;42.206;24.142;2023-05-07T03:27:55;99074.97;;;13.10;82.83
12215;BME280;6170;42.206;24.142;2023-05-07T03:30:22;99090.91;;;13.18;83.03
12215;BME280;6170;42.206;24.142;2023-05-07T03:32:49;99125.38;;;13.47;82.72
12215;BME280;6170;42.206;24.142;2023-05-07T03:35:16;99089.63;;;13.20;83.03
12215;BME280;6170;42.206;24.142;2023-05-07T03:37:43;99089.00;;;13.25;82.71
12215;BME280;6170;42.206;24.142;2023-05-07T03:40:12;99126.22;;;13.41;83.04
12215;BME280;6170;42.206;24.142;2023-05-07T03:42:38;99072.50;;;12.88;83.77
12215;BME280;6170;42.206;24.142;2023-05-07T03:45:07;99124.63;;;13.27;84.04
12215;BME280;6170;42.206;24.142;2023-05-07T03:47:34;99094.63;;;12.97;84.12
12215;BME280;6170;42.206;24.142;2023-05-07T03:50:01;99077.06;;;12.94;83.78
12215;BME280;6170;42.206;24.142;2023-05-07T03:52:28;99122.16;;;13.12;83.67
12215;BME280;6170;42.206;24.142;2023-05-07T03:54:54;99081.66;;;12.68;83.71
12215;BME280;6170;42.206;24.142;2023-05-07T03:57:23;99084.13;;;12.69;83.47
12215;BME280;6170;42.206;24.142;2023-05-07T03:59:50;99081.47;;;12.30;84.47
12215;BME280;6170;42.206;24.142;2023-05-07T04:02:17;99130.03;;;13.00;83.22
12215;BME280;6170;42.206;24.142;2023-05-07T04:04:44;99085.16;;;12.81;82.63
12215;BME280;6170;42.206;24.142;2023-05-07T04:07:10;99083.44;;;13.20;81.75
12215;BME280;6170;42.206;24.142;2023-05-07T04:09:37;99077.16;;;13.32;80.87
12215;BME280;6170;42.206;24.142;2023-05-07T04:12:04;99084.28;;;13.65;80.01
12215;BME280;6170;42.206;24.142;2023-05-07T04:14:33;99077.22;;;13.70;78.74
12215;BME280;6170;42.206;24.142;2023-05-07T04:17:00;99117.50;;;14.28;78.30
12215;BME280;6170;42.206;24.142;2023-05-07T04:19:28;99075.78;;;14.37;76.94
12215;BME280;6170;42.206;24.142;2023-05-07T04:21:55;99053.78;;;14.09;77.43
12215;BME280;6170;42.206;24.142;2023-05-07T04:24:22;99079.19;;;14.75;76.29
12215;BME280;6170;42.206;24.142;2023-05-07T04:26:48;99081.16;;;15.05;74.99
12215;BME280;6170;42.206;24.142;2023-05-07T04:29:16;99083.06;;;15.04;74.77
12215;BME280;6170;42.206;24.142;2023-05-07T04:31:44;99085.31;;;15.07;75.58
12215;BME280;6170;42.206;24.142;2023-05-07T04:34:11;99118.84;;;15.72;74.76
12215;BME280;6170;42.206;24.142;2023-05-07T04:36:39;99081.88;;;15.85;72.90
12215;BME280;6170;42.206;24.142;2023-05-07T04:39:06;99116.38;;;16.72;72.31
12215;BME280;6170;42.206;24.142;2023-05-07T04:41:35;99080.38;;;16.83;71.26
12215;BME280;6170;42.206;24.142;2023-05-07T04:44:02;99127.69;;;16.81;71.38
12215;BME280;6170;42.206;24.142;2023-05-07T04:46:31;99087.53;;;16.66;70.96
12215;BME280;6170;42.206;24.142;2023-05-07T04:48:59;99093.91;;;16.95;70.22
12215;BME280;6170;42.206;24.142;2023-05-07T04:51:26;99086.59;;;16.84;70.09
12215;BME280;6170;42.206;24.142;2023-05-07T04:53:54;99072.13;;;17.01;69.89
12215;BME280;6170;42.206;24.142;2023-05-07T04:56:20;99082.56;;;17.33;68.99
12215;BME280;6170;42.206;24.142;2023-05-07T04:58:47;99099.09;;;17.08;69.64
12215;BME280;6170;42.206;24.142;2023-05-07T05:01:14;99090.84;;;17.66;69.58
12215;BME280;6170;42.206;24.142;2023-05-07T05:03:41;99126.06;;;18.06;67.93
12215;BME280;6170;42.206;24.142;2023-05-07T05:06:10;99087.75;;;17.86;68.45
12215;BME280;6170;42.206;24.142;2023-05-07T05:08:36;99130.75;;;18.67;68.08
12215;BME280;6170;42.206;24.142;2023-05-07T05:11:03;99124.59;;;18.72;66.86
12215;BME280;6170;42.206;24.142;2023-05-07T05:13:30;99095.63;;;18.61;66.97
12215;BME280;6170;42.206;24.142;2023-05-07T05:15:57;99092.59;;;18.57;67.16
12215;BME280;6170;42.206;24.142;2023-05-07T05:18:24;99129.34;;;19.75;65.26
12215;BME280;6170;42.206;24.142;2023-05-07T05:20:51;99096.41;;;19.71;64.63
12215;BME280;6170;42.206;24.142;2023-05-07T05:23:20;99092.19;;;20.61;62.71
12215;BME280;6170;42.206;24.142;2023-05-07T05:25:47;99101.69;;;19.78;62.87
12215;BME280;6170;42.206;24.142;2023-05-07T05:28:13;99131.19;;;20.72;62.00
12215;BME280;6170;42.206;24.142;2023-05-07T05:30:40;99096.91;;;20.76;62.32
12215;BME280;6170;42.206;24.142;2023-05-07T05:33:07;99095.78;;;20.67;61.98
12215;BME280;6170;42.206;24.142;2023-05-07T05:35:34;99095.72;;;20.98;59.86
12215;BME280;6170;42.206;24.142;2023-05-07T05:38:02;99098.78;;;21.07;60.30
12215;BME280;6170;42.206;24.142;2023-05-07T05:40:30;99099.91;;;20.15;62.36
12215;BME280;6170;42.206;24.142;2023-05-07T05:42:57;99094.66;;;20.99;60.47
12215;BME280;6170;42.206;24.142;2023-05-07T05:45:24;99091.38;;;21.39;57.85
12215;BME280;6170;42.206;24.142;2023-05-07T05:47:51;99100.50;;;21.65;59.14
12215;BME280;6170;42.206;24.142;2023-05-07T05:50:18;99126.38;;;21.16;60.58
12215;BME280;6170;42.206;24.142;2023-05-07T05:52:45;99098.09;;;21.22;59.44
12215;BME280;6170;42.206;24.142;2023-05-07T05:55:12;99125.72;;;21.35;59.62
12215;BME280;6170;42.206;24.142;2023-05-07T05:57:41;99101.00;;;20.73;60.22
12215;BME280;6170;42.206;24.142;2023-05-07T06:00:09;99096.47;;;20.52;60.83
12215;BME280;6170;42.206;24.142;2023-05-07T06:02:36;99094.47;;;20.74;60.24
12215;BME280;6170;42.206;24.142;2023-05-07T06:05:03;99097.72;;;20.71;60.13
12215;BME280;6170;42.206;24.142;2023-05-07T06:07:30;99093.41;;;21.69;58.53
12215;BME280;6170;42.206;24.142;2023-05-07T06:09:57;99084.47;;;21.84;59.47
12215;BME280;6170;42.206;24.142;2023-05-07T06:12:24;99087.50;;;21.87;56.78
12215;BME280;6170;42.206;24.142;2023-05-07T06:14:52;99124.25;;;22.47;56.41
12215;BME280;6170;42.206;24.142;2023-05-07T06:17:20;99084.38;;;22.76;55.75
12215;BME280;6170;42.206;24.142;2023-05-07T06:19:47;99089.81;;;22.36;54.27
12215;BME280;6170;42.206;24.142;2023-05-07T06:22:14;99085.72;;;22.28;56.87
12215;BME280;6170;42.206;24.142;2023-05-07T06:24:40;99084.88;;;22.13;54.87
12215;BME280;6170;42.206;24.142;2023-05-07T06:27:08;99095.56;;;22.65;56.19
12215;BME280;6170;42.206;24.142;2023-05-07T06:29:35;99089.28;;;22.34;56.23
12215;BME280;6170;42.206;24.142;2023-05-07T06:32:09;99081.41;;;22.83;55.78
12215;BME280;6170;42.206;24.142;2023-05-07T06:34:37;99089.19;;;21.93;57.47
12215;BME280;6170;42.206;24.142;2023-05-07T06:37:04;99084.59;;;23.15;53.65
12215;BME280;6170;42.206;24.142;2023-05-07T06:39:31;99112.69;;;23.56;52.29
12215;BME280;6170;42.206;24.142;2023-05-07T06:41:58;99088.66;;;23.28;53.78
12215;BME280;6170;42.206;24.142;2023-05-07T06:44:24;99084.59;;;23.15;51.99
12215;BME280;6170;42.206;24.142;2023-05-07T06:46:51;99118.47;;;23.40;53.98
12215;BME280;6170;42.206;24.142;2023-05-07T06:49:20;99081.25;;;23.54;51.63
12215;BME280;6170;42.206;24.142;2023-05-07T06:51:47;99083.75;;;23.40;55.12
12215;BME280;6170;42.206;24.142;2023-05-07T06:54:14;99084.00;;;23.54;52.51
12215;BME280;6170;42.206;24.142;2023-05-07T06:56:41;99115.31;;;23.82;52.33
12215;BME280;6170;42.206;24.142;2023-05-07T06:59:08;99080.34;;;23.73;52.52
12215;BME280;6170;42.206;24.142;2023-05-07T07:01:35;99108.38;;;23.30;54.00
12215;BME280;6170;42.206;24.142;2023-05-07T07:04:01;99076.63;;;23.39;54.27
12215;BME280;6170;42.206;24.142;2023-05-07T07:06:30;99117.38;;;24.10;52.38
12215;BME280;6170;42.206;24.142;2023-05-07T07:08:57;99082.69;;;23.11;50.05
12215;BME280;6170;42.206;24.142;2023-05-07T07:11:24;99115.28;;;23.92;54.30
12215;BME280;6170;42.206;24.142;2023-05-07T07:13:51;99084.78;;;23.59;54.57
12215;BME280;6170;42.206;24.142;2023-05-07T07:16:19;99090.63;;;23.17;53.04
12215;BME280;6170;42.206;24.142;2023-05-07T07:18:46;99084.09;;;23.93;53.83
12215;BME280;6170;42.206;24.142;2023-05-07T07:21:13;99089.94;;;23.71;54.28
12215;BME280;6170;42.206;24.142;2023-05-07T07:23:42;99078.88;;;25.08;52.84
12215;BME280;6170;42.206;24.142;2023-05-07T07:26:09;99078.69;;;23.72;52.54
12215;BME280;6170;42.206;24.142;2023-05-07T07:28:42;99079.81;;;24.65;52.03
12215;BME280;6170;42.206;24.142;2023-05-07T07:31:09;99082.19;;;24.37;54.00
12215;BME280;6170;42.206;24.142;2023-05-07T07:33:36;99112.84;;;25.36;51.55
12215;BME280;6170;42.206;24.142;2023-05-07T07:36:05;99079.09;;;24.05;51.68
12215;BME280;6170;42.206;24.142;2023-05-07T07:38:32;99070.88;;;24.49;53.80
12215;BME280;6170;42.206;24.142;2023-05-07T07:41:01;99109.50;;;24.86;51.36
12215;BME280;6170;42.206;24.142;2023-05-07T07:43:28;99081.69;;;24.30;49.29
12215;BME280;6170;42.206;24.142;2023-05-07T07:45:55;99086.13;;;23.67;52.45
12215;BME280;6170;42.206;24.142;2023-05-07T07:48:22;99109.19;;;23.20;53.73
12215;BME280;6170;42.206;24.142;2023-05-07T07:50:49;99070.00;;;23.60;52.24
12215;BME280;6170;42.206;24.142;2023-05-07T07:53:16;99080.44;;;23.48;53.87
12215;BME280;6170;42.206;24.142;2023-05-07T07:55:44;99077.53;;;23.89;53.69
12215;BME280;6170;42.206;24.142;2023-05-07T07:58:12;99067.13;;;24.35;52.42
12215;BME280;6170;42.206;24.142;2023-05-07T08:00:39;99072.72;;;24.20;51.81
12215;BME280;6170;42.206;24.142;2023-05-07T08:03:09;99071.97;;;23.40;52.09
12215;BME280;6170;42.206;24.142;2023-05-07T08:05:36;99077.78;;;23.13;54.57
12215;BME280;6170;42.206;24.142;2023-05-07T08:08:04;99047.50;;;22.54;53.04
12215;BME280;6170;42.206;24.142;2023-05-07T08:10:31;99071.72;;;23.31;54.68
12215;BME280;6170;42.206;24.142;2023-05-07T08:13:00;99099.28;;;24.14;52.86
12215;BME280;6170;42.206;24.142;2023-05-07T08:15:28;99069.50;;;23.43;54.07
12215;BME280;6170;42.206;24.142;2023-05-07T08:17:55;99066.16;;;23.66;52.05
12215;BME280;6170;42.206;24.142;2023-05-07T08:20:22;99101.38;;;23.83;50.85
12215;BME280;6170;42.206;24.142;2023-05-07T08:22:49;99069.78;;;24.06;51.76
12215;BME280;6170;42.206;24.142;2023-05-07T08:25:17;99068.41;;;23.49;52.57
12215;BME280;6170;42.206;24.142;2023-05-07T08:27:45;99066.34;;;23.01;51.59
12215;BME280;6170;42.206;24.142;2023-05-07T08:30:13;99097.50;;;22.95;54.45
12215;BME280;6170;42.206;24.142;2023-05-07T08:32:41;99095.47;;;23.46;53.93
12215;BME280;6170;42.206;24.142;2023-05-07T08:35:08;99072.75;;;23.60;56.84
12215;BME280;6170;42.206;24.142;2023-05-07T08:37:35;99063.53;;;23.31;55.68
12215;BME280;6170;42.206;24.142;2023-05-07T08:40:03;99062.94;;;23.49;59.04
12215;BME280;6170;42.206;24.142;2023-05-07T08:42:35;99057.72;;;23.58;52.80
12215;BME280;6170;42.206;24.142;2023-05-07T08:45:03;99093.63;;;23.11;55.44
12215;BME280;6170;42.206;24.142;2023-05-07T08:47:35;99053.94;;;23.28;55.67
12215;BME280;6170;42.206;24.142;2023-05-07T08:50:07;99059.25;;;22.90;56.16
12215;BME280;6170;42.206;24.142;2023-05-07T08:52:35;99038.78;;;22.77;55.21
12215;BME280;6170;42.206;24.142;2023-05-07T08:55:03;99051.13;;;23.59;57.17
12215;BME280;6170;42.206;24.142;2023-05-07T08:57:30;99053.50;;;23.01;54.27
12215;BME280;6170;42.206;24.142;2023-05-07T08:59:57;99052.94;;;23.84;56.21
12215;BME280;6170;42.206;24.142;2023-05-07T09:02:24;99056.34;;;23.50;55.09
12215;BME280;6170;42.206;24.142;2023-05-07T09:04:51;99073.97;;;23.19;57.24
12215;BME280;6170;42.206;24.142;2023-05-07T09:07:20;99050.09;;;23.35;54.41
12215;BME280;6170;42.206;24.142;2023-05-07T09:09:48;99083.59;;;23.81;55.25
12215;BME280;6170;42.206;24.142;2023-05-07T09:12:15;99047.09;;;23.95;54.38
12215;BME280;6170;42.206;24.142;2023-05-07T09:14:41;99046.22;;;24.05;54.66
12215;BME280;6170;42.206;24.142;2023-05-07T09:17:08;99069.78;;;23.47;54.37
12215;BME280;6170;42.206;24.142;2023-05-07T09:19:35;99046.44;;;23.64;54.21
12215;BME280;6170;42.206;24.142;2023-05-07T09:22:04;99044.66;;;23.24;54.67
12215;BME280;6170;42.206;24.142;2023-05-07T09:24:33;99048.06;;;22.66;53.62
12215;BME280;6170;42.206;24.142;2023-05-07T09:27:03;99071.84;;;23.80;54.12
12215;BME280;6170;42.206;24.142;2023-05-07T09:29:30;99047.13;;;23.31;53.53
12215;BME280;6170;42.206;24.142;2023-05-07T09:32:01;99067.09;;;23.96;53.84
12215;BME280;6170;42.206;24.142;2023-05-07T09:34:28;99015.19;;;23.81;54.15
12215;BME280;6170;42.206;24.142;2023-05-07T09:36:56;99073.38;;;23.32;52.99
12215;BME280;6170;42.206;24.142;2023-05-07T09:39:23;99026.81;;;23.42;50.49
12215;BME280;6170;42.206;24.142;2023-05-07T09:41:51;99028.00;;;23.26;53.09
12215;BME280;6170;42.206;24.142;2023-05-07T09:44:20;99022.41;;;24.44;56.13
12215;BME280;6170;42.206;24.142;2023-05-07T09:46:53;99018.88;;;24.73;52.34
12215;BME280;6170;42.206;24.142;2023-05-07T09:49:22;99027.69;;;23.92;53.65
12215;BME280;6170;42.206;24.142;2023-05-07T09:51:51;99010.34;;;23.67;50.21
12215;BME280;6170;42.206;24.142;2023-05-07T09:54:19;99009.03;;;24.72;51.91
12215;BME280;6170;42.206;24.142;2023-05-07T09:56:46;99012.69;;;24.28;51.00
12215;BME280;6170;42.206;24.142;2023-05-07T09:59:16;99005.13;;;24.49;49.29
12215;BME280;6170;42.206;24.142;2023-05-07T10:01:44;99004.16;;;23.91;50.70
12215;BME280;6170;42.206;24.142;2023-05-07T10:04:12;99001.41;;;24.35;49.05
12215;BME280;6170;42.206;24.142;2023-05-07T10:06:39;98993.69;;;24.42;50.26
12215;BME280;6170;42.206;24.142;2023-05-07T10:09:07;98982.75;;;24.42;49.86
12215;BME280;6170;42.206;24.142;2023-05-07T10:11:34;98982.50;;;24.96;49.69
12215;BME280;6170;42.206;24.142;2023-05-07T10:14:02;98981.03;;;25.03;50.84
12215;BME280;6170;42.206;24.142;2023-05-07T10:16:33;98989.81;;;25.00;51.54
12215;BME280;6170;42.206;24.142;2023-05-07T10:19:02;98973.31;;;24.53;49.40
12215;BME280;6170;42.206;24.142;2023-05-07T10:21:30;98968.84;;;24.62;47.64
12215;BME280;6170;42.206;24.142;2023-05-07T10:24:00;98969.44;;;24.59;51.04
12215;BME280;6170;42.206;24.142;2023-05-07T10:26:32;98973.63;;;24.75;46.93
12215;BME280;6170;42.206;24.142;2023-05-07T10:29:02;98971.63;;;24.57;44.91
12215;BME280;6170;42.206;24.142;2023-05-07T10:31:50;98958.16;;;24.89;48.01
12215;BME280;6170;42.206;24.142;2023-05-07T10:34:26;98961.13;;;25.17;46.29
12215;BME280;6170;42.206;24.142;2023-05-07T10:36:55;98960.53;;;24.72;43.68
12215;BME280;6170;42.206;24.142;2023-05-07T10:39:23;98951.78;;;24.41;46.12
12215;BME280;6170;42.206;24.142;2023-05-07T10:41:50;98960.56;;;24.67;45.21
12215;BME280;6170;42.206;24.142;2023-05-07T10:44:27;98951.50;;;24.43;45.13
12215;BME280;6170;42.206;24.142;2023-05-07T10:47:09;98974.66;;;24.55;45.97
12215;BME280;6170;42.206;24.142;2023-05-07T10:49:38;98942.84;;;24.59;46.58
12215;BME280;6170;42.206;24.142;2023-05-07T10:52:25;98944.09;;;25.62;46.37
12215;BME280;6170;42.206;24.142;2023-05-07T10:55:19;98926.81;;;25.19;46.61
12215;BME280;6170;42.206;24.142;2023-05-07T10:57:47;98953.53;;;25.32;45.34
12215;BME280;6170;42.206;24.142;2023-05-07T11:00:42;98962.13;;;25.02;44.43
12215;BME280;6170;42.206;24.142;2023-05-07T11:03:09;98937.63;;;25.11;46.48
12215;BME280;6170;42.206;24.142;2023-05-07T11:05:37;98942.94;;;25.26;43.29
12215;BME280;6170;42.206;24.142;2023-05-07T11:08:06;98939.19;;;25.17;41.83
12215;BME280;6170;42.206;24.142;2023-05-07T11:10:50;98922.53;;;25.13;44.29
12215;BME280;6170;42.206;24.142;2023-05-07T11:13:18;98925.28;;;24.89;44.01
12215;BME280;6170;42.206;24.142;2023-05-07T11:15:47;98919.81;;;24.84;43.84
12215;BME280;6170;42.206;24.142;2023-05-07T11:18:16;98923.34;;;25.56;42.67
12215;BME280;6170;42.206;24.142;2023-05-07T11:20:56;98920.13;;;25.86;43.15
12215;BME280;6170;42.206;24.142;2023-05-07T11:26:49;98921.28;;;24.77;43.17
12215;BME280;6170;42.206;24.142;2023-05-07T11:29:18;98919.47;;;25.15;42.68
12215;BME280;6170;42.206;24.142;2023-05-07T11:31:49;98914.44;;;25.64;44.31
12215;BME280;6170;42.206;24.142;2023-05-07T11:34:21;98920.06;;;25.12;43.58
12215;BME280;6170;42.206;24.142;2023-05-07T11:36:48;98917.78;;;25.19;44.70
12215;BME280;6170;42.206;24.142;2023-05-07T11:39:29;98918.66;;;25.57;43.16
12215;BME280;6170;42.206;24.142;2023-05-07T11:41:58;98918.00;;;25.41;44.83
12215;BME280;6170;42.206;24.142;2023-05-07T11:44:25;98917.38;;;25.49;43.89
12215;BME280;6170;42.206;24.142;2023-05-07T11:47:05;98917.94;;;25.27;42.34
12215;BME280;6170;42.206;24.142;2023-05-07T11:49:32;98917.03;;;25.13;46.29
12215;BME280;6170;42.206;24.142;2023-05-07T11:52:01;98915.56;;;25.21;44.14
12215;BME280;6170;42.206;24.142;2023-05-07T11:54:35;98914.31;;;25.32;42.64
12215;BME280;6170;42.206;24.142;2023-05-07T11:57:03;98909.59;;;26.26;43.96
12215;BME280;6170;42.206;24.142;2023-05-07T11:59:38;98921.41;;;26.08;43.59
12215;BME280;6170;42.206;24.142;2023-05-07T12:02:05;98906.16;;;26.02;42.55
12215;BME280;6170;42.206;24.142;2023-05-07T12:04:32;98902.91;;;25.81;41.95
12215;BME280;6170;42.206;24.142;2023-05-07T12:06:59;98894.66;;;25.25;42.09
12215;BME280;6170;42.206;24.142;2023-05-07T12:09:26;98880.19;;;25.19;41.98
12215;BME280;6170;42.206;24.142;2023-05-07T12:11:53;98882.34;;;25.41;42.97
12215;BME280;6170;42.206;24.142;2023-05-07T12:14:27;98878.81;;;25.59;42.47
12215;BME280;6170;42.206;24.142;2023-05-07T12:16:54;98879.75;;;25.87;43.47
12215;BME280;6170;42.206;24.142;2023-05-07T12:19:22;98880.66;;;25.45;41.22
12215;BME280;6170;42.206;24.142;2023-05-07T12:21:49;98907.88;;;25.41;44.36
12215;BME280;6170;42.206;24.142;2023-05-07T12:24:16;98873.31;;;24.55;44.53
12215;BME280;6170;42.206;24.142;2023-05-07T12:26:43;98883.31;;;24.65;44.52
12215;BME280;6170;42.206;24.142;2023-05-07T12:29:10;98869.13;;;24.34;45.26
12215;BME280;6170;42.206;24.142;2023-05-07T12:31:41;98864.53;;;25.01;45.20
12215;BME280;6170;42.206;24.142;2023-05-07T12:34:10;98869.63;;;24.89;44.28
12215;BME280;6170;42.206;24.142;2023-05-07T12:36:37;98862.81;;;24.63;43.28
12215;BME280;6170;42.206;24.142;2023-05-07T12:39:05;98869.88;;;24.69;43.82
12215;BME280;6170;42.206;24.142;2023-05-07T12:41:36;98856.03;;;25.02;43.28
12215;BME280;6170;42.206;24.142;2023-05-07T12:44:04;98863.34;;;24.65;43.09
12215;BME280;6170;42.206;24.142;2023-05-07T12:46:31;98857.50;;;24.71;43.23
12215;BME280;6170;42.206;24.142;2023-05-07T12:49:00;98871.31;;;24.85;43.08
12215;BME280;6170;42.206;24.142;2023-05-07T12:51:27;98862.50;;;25.68;42.25
12215;BME280;6170;42.206;24.142;2023-05-07T12:53:56;98850.50;;;25.64;42.98
12215;BME280;6170;42.206;24.142;2023-05-07T12:56:23;98836.25;;;25.24;41.39
12215;BME280;6170;42.206;24.142;2023-05-07T12:58:50;98839.72;;;24.69;42.88
12215;BME280;6170;42.206;24.142;2023-05-07T13:01:17;98844.84;;;24.99;42.75
12215;BME280;6170;42.206;24.142;2023-05-07T13:03:48;98820.41;;;25.21;42.25
12215;BME280;6170;42.206;24.142;2023-05-07T13:06:17;98844.25;;;25.39;43.97
12215;BME280;6170;42.206;24.142;2023-05-07T13:08:43;98849.28;;;25.32;43.58